createdAt,value
2022-10-08T00:06:48.479Z,86.10
2022-10-08T00:14:54.128Z,86.50
2022-10-08T00:23:02.163Z,87.30
2022-10-08T00:31:11.344Z,86.70
2022-10-08T00:39:21.620Z,87.10
2022-10-08T00:47:42.558Z,87.50
2022-10-08T00:55:50.986Z,87.40
2022-10-08T01:03:56.603Z,87.20
2022-10-08T01:12:13.380Z,86.90
2022-10-08T01:20:32.216Z,87.50
2022-10-08T01:28:45.391Z,87.00
2022-10-08T01:36:53.817Z,86.40
2022-10-08T01:45:05.774Z,86.90
2022-10-08T01:53:14.723Z,87.00
2022-10-08T02:01:27.868Z,86.60
2022-10-08T02:09:36.168Z,86.90
2022-10-08T02:17:57.407Z,88.20
2022-10-08T02:26:04.345Z,87.80
2022-10-08T02:34:19.361Z,87.50
2022-10-08T02:42:28.204Z,87.60
2022-10-08T02:50:38.862Z,87.60
2022-10-08T02:58:46.261Z,88.40
2022-10-08T03:06:55.854Z,88.00
2022-10-08T03:15:01.580Z,87.40
2022-10-08T03:23:09.499Z,87.80
2022-10-08T03:31:14.916Z,88.20
2022-10-08T03:39:22.954Z,87.90
2022-10-08T03:47:31.552Z,88.50
2022-10-08T03:55:41.531Z,88.60
2022-10-08T04:03:47.355Z,88.70
2022-10-08T04:11:55.243Z,88.80
2022-10-08T04:20:00.554Z,89.60
2022-10-08T04:28:09.051Z,90.50
2022-10-08T04:36:16.075Z,90.60
2022-10-08T04:44:24.151Z,91.20
2022-10-08T04:52:29.530Z,91.10
2022-10-08T05:00:38.793Z,90.90
2022-10-08T05:08:44.105Z,91.20
2022-10-08T05:16:52.269Z,91.50
2022-10-08T05:24:57.558Z,91.60
2022-10-08T05:33:05.452Z,91.30
2022-10-08T05:41:12.738Z,91.40
2022-10-08T05:49:23.560Z,91.50
2022-10-08T05:57:28.898Z,91.50
2022-10-08T06:05:36.803Z,91.30
2022-10-08T06:13:42.265Z,91.10
2022-10-08T06:21:50.304Z,91.30
2022-10-08T06:29:55.530Z,90.30
2022-10-08T06:38:03.465Z,90.10
2022-10-08T06:46:09.284Z,89.90
2022-10-08T06:54:17.251Z,88.70
2022-10-08T07:02:22.612Z,87.90
2022-10-08T07:10:33.229Z,86.00
2022-10-08T07:18:40.735Z,85.60
2022-10-08T07:26:48.652Z,83.80
2022-10-08T07:34:57.889Z,83.30
2022-10-08T07:43:07.864Z,82.50
2022-10-08T07:51:14.554Z,81.50
2022-10-08T07:59:22.547Z,81.40
2022-10-08T08:07:27.948Z,80.70
2022-10-08T08:15:38.519Z,73.50
2022-10-08T08:23:45.915Z,74.60
2022-10-08T08:31:55.045Z,74.50
2022-10-08T08:40:03.621Z,75.60
2022-10-08T08:48:22.425Z,77.40
2022-10-08T08:56:28.183Z,76.20
2022-10-08T09:04:45.384Z,74.30
2022-10-08T09:12:53.647Z,74.90
2022-10-08T09:21:01.663Z,73.40
2022-10-08T09:29:08.240Z,67.20
2022-10-08T09:37:23.765Z,51.00
2022-10-08T09:45:35.908Z,40.00
2022-10-08T09:53:47.800Z,35.30
2022-10-08T10:01:53.280Z,34.80
2022-10-08T10:10:03.341Z,32.80
2022-10-08T10:18:14.342Z,30.50
2022-10-08T10:26:26.720Z,28.40
2022-10-08T10:34:34.856Z,28.10
2022-10-08T10:42:50.797Z,29.10
2022-10-08T10:51:10.837Z,28.70
2022-10-08T10:59:33.922Z,28.00
2022-10-08T11:08:04.404Z,27.20
2022-10-08T11:16:25.692Z,28.40
2022-10-08T11:24:54.854Z,36.50
2022-10-08T11:33:05.826Z,43.60
2022-10-08T11:41:19.441Z,48.40
2022-10-08T11:49:54.604Z,51.20
2022-10-08T11:58:08.965Z,52.90
2022-10-08T12:06:21.256Z,55.90
2022-10-08T12:14:50.725Z,57.20
2022-10-08T12:23:04.017Z,58.10
2022-10-08T12:31:35.780Z,58.50
2022-10-08T12:39:45.065Z,58.70
2022-10-08T12:48:01.931Z,58.60
2022-10-08T12:56:08.321Z,58.60
2022-10-08T13:04:22.379Z,58.70
2022-10-08T13:12:27.856Z,58.50
2022-10-08T13:20:35.768Z,58.80
2022-10-08T13:28:59.393Z,58.70
2022-10-08T13:37:11.581Z,60.20
2022-10-08T13:45:19.449Z,59.30
2022-10-08T13:53:29.554Z,59.40
2022-10-08T14:01:34.960Z,59.50
2022-10-08T14:09:42.955Z,59.70
2022-10-08T14:17:50.807Z,60.70
2022-10-08T14:25:58.784Z,61.10
2022-10-08T14:34:04.151Z,60.40
2022-10-08T14:42:12.055Z,60.90
2022-10-08T14:50:17.449Z,60.70
2022-10-08T14:58:25.495Z,60.50
2022-10-08T15:06:30.811Z,61.40
2022-10-08T15:14:38.697Z,61.60
2022-10-08T15:22:44.076Z,62.50
2022-10-08T15:30:51.999Z,63.40
2022-10-08T15:39:01.805Z,64.10
2022-10-08T15:47:12.279Z,64.40
2022-10-08T15:55:17.742Z,65.30
2022-10-08T16:03:25.681Z,66.10
2022-10-08T16:11:33.102Z,66.70
2022-10-08T16:19:42.096Z,67.50
2022-10-08T16:27:47.573Z,69.10
2022-10-08T16:35:55.945Z,71.10
2022-10-08T16:44:03.302Z,72.90
2022-10-08T16:52:13.747Z,74.00
2022-10-08T17:00:19.784Z,75.40
2022-10-08T17:08:33.060Z,76.30
2022-10-08T17:16:39.542Z,77.30
2022-10-08T17:24:47.504Z,77.90
2022-10-08T17:32:52.761Z,77.80
2022-10-08T17:41:01.155Z,78.30
2022-10-08T17:49:07.058Z,78.30
2022-10-08T17:57:14.946Z,78.60
2022-10-08T18:05:20.236Z,79.30
2022-10-08T18:13:28.201Z,79.60
2022-10-08T18:21:33.513Z,79.80
2022-10-08T18:29:41.494Z,81.00
2022-10-08T18:37:47.385Z,79.80
2022-10-08T18:45:55.362Z,79.70
2022-10-08T18:54:02.347Z,80.10
2022-10-08T19:02:12.295Z,80.70
2022-10-08T19:10:17.761Z,80.90
2022-10-08T19:18:25.756Z,81.20
2022-10-08T19:26:32.775Z,81.40
2022-10-08T19:34:40.860Z,81.80
2022-10-08T19:42:46.480Z,82.20
2022-10-08T19:50:54.687Z,82.50
2022-10-08T19:59:00.831Z,82.60
2022-10-08T20:07:08.741Z,82.50
2022-10-08T20:15:14.347Z,83.20
2022-10-08T20:23:22.202Z,82.80
2022-10-08T20:31:31.768Z,83.20
2022-10-08T20:39:39.798Z,83.90
2022-10-08T20:47:45.058Z,84.00
2022-10-08T20:55:53.690Z,84.60
2022-10-08T21:04:00.726Z,84.40
2022-10-08T21:12:08.696Z,84.40
2022-10-08T21:20:14.027Z,84.10
2022-10-08T21:28:23.006Z,84.80
2022-10-08T21:36:30.578Z,84.90
2022-10-08T21:44:38.456Z,85.30
2022-10-08T21:52:43.704Z,84.80
2022-10-08T22:00:51.928Z,85.10
2022-10-08T22:08:57.302Z,85.40
2022-10-08T22:17:05.196Z,85.60
2022-10-08T22:25:11.201Z,85.50
2022-10-08T22:33:20.040Z,85.40
2022-10-08T22:41:27.230Z,86.30
2022-10-08T22:49:35.140Z,87.10
2022-10-08T22:57:40.443Z,86.40
2022-10-08T23:05:48.341Z,86.00
2022-10-08T23:13:54.739Z,85.60
2022-10-08T23:22:02.558Z,86.60
2022-10-08T23:30:25.562Z,86.40
2022-10-08T23:38:37.022Z,86.20
2022-10-08T23:46:42.288Z,85.80
2022-10-08T23:54:50.162Z,86.10
